Tolstoy, SD

4:20 PM CDT on October 20, 2014 (GMT -0500)
KSDHOVEN2 | Change Station
CLOSE
Current Station
Personal Weather Station
Location: Hoven, SD
Elevation: 1877 ft
Nearby Weather Stations

Elev 1877 ft 45.24 °N, 99.78 °W | Updated 9 minutes ago

Clear
Clear
68.2 °F
Feels Like 68.2 °F
N
6.3
Wind Variable Wind from South
Gusts 6.3 mph

Today
High -- | Low -- °F
--% Chance of Precip.
Yesterday
High -- | Low -- °F
Precip. -- in
8:00 AM 6:44 PM
Waning Crescent, 9% visible
Pressure 29.96 in
Visibility 10.0 miles
Clouds Clear
Dew Point 28 °F
Humidity 22%
Rainfall 0.00 in
Snow Depth Not available.
UV 2 out of 12
Pollen 1.00 out of 12
Air Quality Not available.
Flu Activity Sporadic
METAR KMBG 202052Z AUTO 16012KT 10SM CLR 23/02 A2996 RMK AO2 SLP146 T02280017 56025

More Conditions Fewer Conditions

Pressure 29.96 in
Visibility 10.0 miles
Clouds Clear
Dew Point 28 °F
Humidity 22%
Rainfall 0.00 in
Snow Depth Not available.
UV 2 out of 12
Pollen 1.00 out of 12
Air Quality Not available.
Flu Activity Sporadic
METAR KMBG 202052Z AUTO 16012KT 10SM CLR 23/02 A2996 RMK AO2 SLP146 T02280017 56025

More Conditions Fewer Conditions

10-Day Weather Forecast

Almanac

Astronomy

Oct. 20, 2014 Rise Set
Actual Time 8:00 AM CDT 6:44 PM CDT
Civil Twilight 7:31 AM CDT 7:14 PM CDT
Nautical Twilight 6:56 AM CDT 7:48 PM CDT
Astronomical Twilight 6:22 AM CDT 8:22 PM CDT
Moon 4:42 AM CDT 5:15 PM CDT
Length of Visible Light 11h 43m
Length of Day
10h 43m
Waning Crescent, 9% of the Moon is Illuminated
Today
Waning Crescent
Oct 23
New
Oct 30
First Quarter
Nov 6
Full
Nov 14
Last Quarter

Today's Extremes

State Highs State Lows

Community

WunderPhotos

Upload Photos

1,763,522 photos uploaded!

WunderBlogs® & News

Nearby

Snow Depth

Station Depth Elevation
North Rapid Creek 0 in 6130 ft

Earthquake Activity

City Distance Mag. Time & Date
No recent earthquake activity has been reported nearby.
Minimum magnitude displayed is 2.5.

Coastal Water Temperatures

Place Temperature
No Stations Reporting

Nearby Weather Stations